sensor_id;sensor_type;location;lat;lon;timestamp;temperature;humidity
50955;DHT22;36966;48.064;-0.792;2023-07-08T00:01:29;27.10;51.90
50955;DHT22;36966;48.064;-0.792;2023-07-08T00:03:48;27.00;52.00
50955;DHT22;36966;48.064;-0.792;2023-07-08T00:06:11;27.10;51.90
50955;DHT22;36966;48.064;-0.792;2023-07-08T00:08:31;27.10;52.00
50955;DHT22;36966;48.064;-0.792;2023-07-08T00:10:50;27.00;52.00
50955;DHT22;36966;48.064;-0.792;2023-07-08T00:13:09;27.00;52.00
50955;DHT22;36966;48.064;-0.792;2023-07-08T00:15:30;27.00;52.10
50955;DHT22;36966;48.064;-0.792;2023-07-08T00:17:51;27.00;52.10
50955;DHT22;36966;48.064;-0.792;2023-07-08T00:20:14;26.90;52.10
50955;DHT22;36966;48.064;-0.792;2023-07-08T00:22:36;26.90;52.20
50955;DHT22;36966;48.064;-0.792;2023-07-08T00:24:57;26.90;52.10
50955;DHT22;36966;48.064;-0.792;2023-07-08T00:27:17;27.00;52.10
50955;DHT22;36966;48.064;-0.792;2023-07-08T00:29:36;26.90;52.00
50955;DHT22;36966;48.064;-0.792;2023-07-08T00:31:55;26.90;52.10
50955;DHT22;36966;48.064;-0.792;2023-07-08T00:34:15;26.90;52.10
50955;DHT22;36966;48.064;-0.792;2023-07-08T00:36:34;26.90;52.10
50955;DHT22;36966;48.064;-0.792;2023-07-08T00:38:54;26.90;52.10
50955;DHT22;36966;48.064;-0.792;2023-07-08T00:43:36;26.80;52.10
50955;DHT22;36966;48.064;-0.792;2023-07-08T00:46:00;26.80;52.10
50955;DHT22;36966;48.064;-0.792;2023-07-08T00:48:23;26.80;52.10
50955;DHT22;36966;48.064;-0.792;2023-07-08T00:50:42;26.80;52.20
50955;DHT22;36966;48.064;-0.792;2023-07-08T00:55:39;26.70;52.20
50955;DHT22;36966;48.064;-0.792;2023-07-08T00:57:58;26.80;52.20
50955;DHT22;36966;48.064;-0.792;2023-07-08T01:00:17;26.70;52.20
50955;DHT22;36966;48.064;-0.792;2023-07-08T01:02:41;26.70;52.20
50955;DHT22;36966;48.064;-0.792;2023-07-08T01:05:04;26.70;52.20
50955;DHT22;36966;48.064;-0.792;2023-07-08T01:07:26;26.70;52.10
50955;DHT22;36966;48.064;-0.792;2023-07-08T01:09:48;26.70;52.10
50955;DHT22;36966;48.064;-0.792;2023-07-08T01:12:08;26.70;52.00
50955;DHT22;36966;48.064;-0.792;2023-07-08T01:14:31;26.70;52.00
50955;DHT22;36966;48.064;-0.792;2023-07-08T01:16:51;26.70;52.00
50955;DHT22;36966;48.064;-0.792;2023-07-08T01:19:12;26.60;51.90
50955;DHT22;36966;48.064;-0.792;2023-07-08T01:21:36;26.60;51.80
50955;DHT22;36966;48.064;-0.792;2023-07-08T01:23:56;26.60;51.80
50955;DHT22;36966;48.064;-0.792;2023-07-08T01:26:15;26.60;51.80
50955;DHT22;36966;48.064;-0.792;2023-07-08T01:28:35;26.60;51.70
50955;DHT22;36966;48.064;-0.792;2023-07-08T01:30:54;26.60;51.70
50955;DHT22;36966;48.064;-0.792;2023-07-08T01:33:16;26.50;51.70
50955;DHT22;36966;48.064;-0.792;2023-07-08T01:35:36;26.60;51.70
50955;DHT22;36966;48.064;-0.792;2023-07-08T01:38:00;26.50;51.70
50955;DHT22;36966;48.064;-0.792;2023-07-08T01:42:38;26.50;51.70
50955;DHT22;36966;48.064;-0.792;2023-07-08T01:44:57;26.50;51.70
50955;DHT22;36966;48.064;-0.792;2023-07-08T01:47:18;26.50;51.70
50955;DHT22;36966;48.064;-0.792;2023-07-08T01:49:38;26.50;51.70
50955;DHT22;36966;48.064;-0.792;2023-07-08T01:51:58;26.50;51.70
50955;DHT22;36966;48.064;-0.792;2023-07-08T01:54:17;26.50;51.70
50955;DHT22;36966;48.064;-0.792;2023-07-08T01:56:37;26.40;51.70
50955;DHT22;36966;48.064;-0.792;2023-07-08T01:58:56;26.50;51.70
50955;DHT22;36966;48.064;-0.792;2023-07-08T02:01:15;26.40;51.80
50955;DHT22;36966;48.064;-0.792;2023-07-08T02:03:34;26.40;51.80
50955;DHT22;36966;48.064;-0.792;2023-07-08T02:05:54;26.40;51.80
50955;DHT22;36966;48.064;-0.792;2023-07-08T02:08:14;26.40;51.80
50955;DHT22;36966;48.064;-0.792;2023-07-08T02:10:33;26.40;51.80
50955;DHT22;36966;48.064;-0.792;2023-07-08T02:12:52;26.40;51.90
50955;DHT22;36966;48.064;-0.792;2023-07-08T02:15:12;26.40;51.90
50955;DHT22;36966;48.064;-0.792;2023-07-08T02:17:31;26.30;51.90
50955;DHT22;36966;48.064;-0.792;2023-07-08T02:19:50;26.30;51.90
50955;DHT22;36966;48.064;-0.792;2023-07-08T02:22:10;26.30;52.00
50955;DHT22;36966;48.064;-0.792;2023-07-08T02:24:29;26.30;52.00
50955;DHT22;36966;48.064;-0.792;2023-07-08T02:26:48;26.30;52.00
50955;DHT22;36966;48.064;-0.792;2023-07-08T02:29:08;26.30;52.10
50955;DHT22;36966;48.064;-0.792;2023-07-08T02:31:27;26.30;52.10
50955;DHT22;36966;48.064;-0.792;2023-07-08T02:33:46;26.30;52.10
50955;DHT22;36966;48.064;-0.792;2023-07-08T02:36:05;26.30;52.20
50955;DHT22;36966;48.064;-0.792;2023-07-08T02:38:25;26.30;52.20
50955;DHT22;36966;48.064;-0.792;2023-07-08T02:40:44;26.30;52.20
50955;DHT22;36966;48.064;-0.792;2023-07-08T02:43:03;26.30;52.20
50955;DHT22;36966;48.064;-0.792;2023-07-08T02:45:23;26.30;52.20
50955;DHT22;36966;48.064;-0.792;2023-07-08T02:47:42;26.30;52.30
50955;DHT22;36966;48.064;-0.792;2023-07-08T02:50:01;26.20;52.30
50955;DHT22;36966;48.064;-0.792;2023-07-08T02:52:21;26.20;52.30
50955;DHT22;36966;48.064;-0.792;2023-07-08T02:54:40;26.20;52.40
50955;DHT22;36966;48.064;-0.792;2023-07-08T02:56:59;26.20;52.40
50955;DHT22;36966;48.064;-0.792;2023-07-08T02:59:19;26.20;52.30
50955;DHT22;36966;48.064;-0.792;2023-07-08T03:01:38;26.20;52.40
50955;DHT22;36966;48.064;-0.792;2023-07-08T03:04:00;26.20;52.40
50955;DHT22;36966;48.064;-0.792;2023-07-08T03:06:19;26.20;52.40
50955;DHT22;36966;48.064;-0.792;2023-07-08T03:08:38;26.20;52.50
50955;DHT22;36966;48.064;-0.792;2023-07-08T03:10:59;26.20;52.60
50955;DHT22;36966;48.064;-0.792;2023-07-08T03:13:18;26.20;52.60
50955;DHT22;36966;48.064;-0.792;2023-07-08T03:15:37;26.20;52.60
50955;DHT22;36966;48.064;-0.792;2023-07-08T03:17:56;26.20;52.60
50955;DHT22;36966;48.064;-0.792;2023-07-08T03:20:16;26.20;52.60
50955;DHT22;36966;48.064;-0.792;2023-07-08T03:22:36;26.20;52.70
50955;DHT22;36966;48.064;-0.792;2023-07-08T03:24:56;26.20;52.70
50955;DHT22;36966;48.064;-0.792;2023-07-08T03:27:15;26.20;52.70
50955;DHT22;36966;48.064;-0.792;2023-07-08T03:29:34;26.10;52.70
50955;DHT22;36966;48.064;-0.792;2023-07-08T03:31:54;26.20;52.80
50955;DHT22;36966;48.064;-0.792;2023-07-08T03:34:14;26.20;52.80
50955;DHT22;36966;48.064;-0.792;2023-07-08T03:36:33;26.10;52.80
50955;DHT22;36966;48.064;-0.792;2023-07-08T03:38:54;26.20;52.80
50955;DHT22;36966;48.064;-0.792;2023-07-08T03:41:14;26.20;52.90
50955;DHT22;36966;48.064;-0.792;2023-07-08T03:43:33;26.10;52.90
50955;DHT22;36966;48.064;-0.792;2023-07-08T03:45:53;26.20;52.90
50955;DHT22;36966;48.064;-0.792;2023-07-08T03:48:12;26.10;53.00
50955;DHT22;36966;48.064;-0.792;2023-07-08T03:50:31;26.10;53.00
50955;DHT22;36966;48.064;-0.792;2023-07-08T03:52:51;26.10;53.00
50955;DHT22;36966;48.064;-0.792;2023-07-08T03:55:11;26.10;53.00
50955;DHT22;36966;48.064;-0.792;2023-07-08T03:57:30;26.10;53.10
50955;DHT22;36966;48.064;-0.792;2023-07-08T03:59:49;26.10;53.10
50955;DHT22;36966;48.064;-0.792;2023-07-08T04:02:12;26.10;53.10
50955;DHT22;36966;48.064;-0.792;2023-07-08T04:04:31;26.10;53.20
50955;DHT22;36966;48.064;-0.792;2023-07-08T04:06:50;26.10;53.20
50955;DHT22;36966;48.064;-0.792;2023-07-08T04:09:10;26.10;53.20
50955;DHT22;36966;48.064;-0.792;2023-07-08T04:11:30;26.10;53.20
50955;DHT22;36966;48.064;-0.792;2023-07-08T04:13:49;26.10;53.20
50955;DHT22;36966;48.064;-0.792;2023-07-08T04:16:12;26.00;53.30
50955;DHT22;36966;48.064;-0.792;2023-07-08T04:18:33;26.10;53.30
50955;DHT22;36966;48.064;-0.792;2023-07-08T04:20:52;26.00;53.30
50955;DHT22;36966;48.064;-0.792;2023-07-08T04:23:12;26.10;53.30
50955;DHT22;36966;48.064;-0.792;2023-07-08T04:25:31;26.10;53.30
50955;DHT22;36966;48.064;-0.792;2023-07-08T04:27:51;26.10;53.30
50955;DHT22;36966;48.064;-0.792;2023-07-08T04:30:24;26.10;53.30
50955;DHT22;36966;48.064;-0.792;2023-07-08T04:32:44;26.10;53.30
50955;DHT22;36966;48.064;-0.792;2023-07-08T04:35:03;26.10;53.30
50955;DHT22;36966;48.064;-0.792;2023-07-08T04:37:22;26.10;53.30
50955;DHT22;36966;48.064;-0.792;2023-07-08T04:39:42;26.10;53.30
50955;DHT22;36966;48.064;-0.792;2023-07-08T04:42:01;26.10;53.30
50955;DHT22;36966;48.064;-0.792;2023-07-08T04:44:20;26.10;53.40
50955;DHT22;36966;48.064;-0.792;2023-07-08T04:46:58;26.10;53.40
50955;DHT22;36966;48.064;-0.792;2023-07-08T04:49:18;26.10;53.40
50955;DHT22;36966;48.064;-0.792;2023-07-08T04:51:39;26.10;53.50
50955;DHT22;36966;48.064;-0.792;2023-07-08T04:53:58;26.10;53.50
50955;DHT22;36966;48.064;-0.792;2023-07-08T04:56:17;26.10;53.40
50955;DHT22;36966;48.064;-0.792;2023-07-08T04:58:38;26.10;53.50
50955;DHT22;36966;48.064;-0.792;2023-07-08T05:00:57;26.10;53.50
50955;DHT22;36966;48.064;-0.792;2023-07-08T05:03:16;26.10;53.50
50955;DHT22;36966;48.064;-0.792;2023-07-08T05:05:35;26.10;53.50
50955;DHT22;36966;48.064;-0.792;2023-07-08T05:07:54;26.10;53.60
50955;DHT22;36966;48.064;-0.792;2023-07-08T05:10:14;26.10;53.60
50955;DHT22;36966;48.064;-0.792;2023-07-08T05:12:34;26.10;53.50
50955;DHT22;36966;48.064;-0.792;2023-07-08T05:14:53;26.20;53.50
50955;DHT22;36966;48.064;-0.792;2023-07-08T05:17:13;26.20;53.40
50955;DHT22;36966;48.064;-0.792;2023-07-08T05:19:32;26.20;53.40
50955;DHT22;36966;48.064;-0.792;2023-07-08T05:21:51;26.10;53.40
50955;DHT22;36966;48.064;-0.792;2023-07-08T05:24:12;26.20;53.40
50955;DHT22;36966;48.064;-0.792;2023-07-08T05:26:32;26.20;53.60
50955;DHT22;36966;48.064;-0.792;2023-07-08T05:28:51;26.10;53.60
50955;DHT22;36966;48.064;-0.792;2023-07-08T05:31:10;26.20;53.70
50955;DHT22;36966;48.064;-0.792;2023-07-08T05:33:30;26.10;53.70
50955;DHT22;36966;48.064;-0.792;2023-07-08T05:35:50;26.10;53.80
50955;DHT22;36966;48.064;-0.792;2023-07-08T05:38:10;26.10;53.70
50955;DHT22;36966;48.064;-0.792;2023-07-08T05:40:29;26.10;53.50
50955;DHT22;36966;48.064;-0.792;2023-07-08T05:42:48;26.20;53.40
50955;DHT22;36966;48.064;-0.792;2023-07-08T05:45:08;26.20;53.40
50955;DHT22;36966;48.064;-0.792;2023-07-08T05:47:29;26.20;53.40
50955;DHT22;36966;48.064;-0.792;2023-07-08T05:49:48;26.20;53.40
50955;DHT22;36966;48.064;-0.792;2023-07-08T05:52:08;26.20;53.40
50955;DHT22;36966;48.064;-0.792;2023-07-08T05:54:30;26.20;53.40
50955;DHT22;36966;48.064;-0.792;2023-07-08T05:56:49;26.20;53.40
50955;DHT22;36966;48.064;-0.792;2023-07-08T05:59:08;26.20;53.40
50955;DHT22;36966;48.064;-0.792;2023-07-08T06:01:28;26.20;53.30
50955;DHT22;36966;48.064;-0.792;2023-07-08T06:03:47;26.20;53.40
50955;DHT22;36966;48.064;-0.792;2023-07-08T06:06:06;26.20;53.40
50955;DHT22;36966;48.064;-0.792;2023-07-08T06:08:26;26.20;53.40
50955;DHT22;36966;48.064;-0.792;2023-07-08T06:10:45;26.20;53.30
50955;DHT22;36966;48.064;-0.792;2023-07-08T06:13:05;26.20;53.40
50955;DHT22;36966;48.064;-0.792;2023-07-08T06:15:24;26.20;53.30
50955;DHT22;36966;48.064;-0.792;2023-07-08T06:17:43;26.20;53.40
50955;DHT22;36966;48.064;-0.792;2023-07-08T06:20:02;26.20;53.30
50955;DHT22;36966;48.064;-0.792;2023-07-08T06:22:22;26.20;53.40
50955;DHT22;36966;48.064;-0.792;2023-07-08T06:24:41;26.20;53.40
50955;DHT22;36966;48.064;-0.792;2023-07-08T06:27:01;26.20;53.40
50955;DHT22;36966;48.064;-0.792;2023-07-08T06:29:20;26.20;53.40
50955;DHT22;36966;48.064;-0.792;2023-07-08T06:31:39;26.20;53.40
50955;DHT22;36966;48.064;-0.792;2023-07-08T06:34:00;26.20;53.40
50955;DHT22;36966;48.064;-0.792;2023-07-08T06:36:19;26.20;53.40
50955;DHT22;36966;48.064;-0.792;2023-07-08T06:38:39;26.20;53.40
50955;DHT22;36966;48.064;-0.792;2023-07-08T06:40:58;26.20;53.40
50955;DHT22;36966;48.064;-0.792;2023-07-08T06:43:17;26.20;53.50
50955;DHT22;36966;48.064;-0.792;2023-07-08T06:45:36;26.20;53.50
50955;DHT22;36966;48.064;-0.792;2023-07-08T06:47:56;26.20;53.40
50955;DHT22;36966;48.064;-0.792;2023-07-08T06:50:15;26.20;53.40
50955;DHT22;36966;48.064;-0.792;2023-07-08T06:52:34;26.20;53.50
50955;DHT22;36966;48.064;-0.792;2023-07-08T06:54:55;26.20;53.40
50955;DHT22;36966;48.064;-0.792;2023-07-08T06:57:14;26.20;53.50
50955;DHT22;36966;48.064;-0.792;2023-07-08T06:59:34;26.20;53.50
50955;DHT22;36966;48.064;-0.792;2023-07-08T07:01:53;26.20;53.50
50955;DHT22;36966;48.064;-0.792;2023-07-08T07:04:13;26.20;53.40
50955;DHT22;36966;48.064;-0.792;2023-07-08T07:06:32;26.20;53.40
50955;DHT22;36966;48.064;-0.792;2023-07-08T07:08:51;26.20;53.30
50955;DHT22;36966;48.064;-0.792;2023-07-08T07:11:10;26.20;53.40
50955;DHT22;36966;48.064;-0.792;2023-07-08T07:13:29;26.20;53.50
50955;DHT22;36966;48.064;-0.792;2023-07-08T07:15:49;26.20;53.30
50955;DHT22;36966;48.064;-0.792;2023-07-08T07:18:08;26.20;53.40
50955;DHT22;36966;48.064;-0.792;2023-07-08T07:20:27;26.20;53.40
50955;DHT22;36966;48.064;-0.792;2023-07-08T07:22:47;26.20;53.30
50955;DHT22;36966;48.064;-0.792;2023-07-08T07:25:06;26.20;53.40
50955;DHT22;36966;48.064;-0.792;2023-07-08T07:27:26;26.20;53.30
50955;DHT22;36966;48.064;-0.792;2023-07-08T07:29:46;26.20;53.30
50955;DHT22;36966;48.064;-0.792;2023-07-08T07:32:06;26.20;53.30
50955;DHT22;36966;48.064;-0.792;2023-07-08T07:34:26;26.20;53.30
50955;DHT22;36966;48.064;-0.792;2023-07-08T07:36:45;26.20;53.30
50955;DHT22;36966;48.064;-0.792;2023-07-08T07:39:04;26.20;53.30
50955;DHT22;36966;48.064;-0.792;2023-07-08T07:41:24;26.20;53.30
50955;DHT22;36966;48.064;-0.792;2023-07-08T07:43:43;26.10;53.30
50955;DHT22;36966;48.064;-0.792;2023-07-08T07:46:02;26.10;53.20
50955;DHT22;36966;48.064;-0.792;2023-07-08T07:48:24;26.20;53.30
50955;DHT22;36966;48.064;-0.792;2023-07-08T07:50:47;26.20;53.20
50955;DHT22;36966;48.064;-0.792;2023-07-08T07:53:07;26.10;53.30
50955;DHT22;36966;48.064;-0.792;2023-07-08T07:55:27;26.20;53.30
50955;DHT22;36966;48.064;-0.792;2023-07-08T07:57:46;26.10;53.30
50955;DHT22;36966;48.064;-0.792;2023-07-08T08:00:06;26.10;53.30
50955;DHT22;36966;48.064;-0.792;2023-07-08T08:02:25;26.10;53.30
50955;DHT22;36966;48.064;-0.792;2023-07-08T08:04:45;26.10;53.30
50955;DHT22;36966;48.064;-0.792;2023-07-08T08:07:05;26.10;53.20
50955;DHT22;36966;48.064;-0.792;2023-07-08T08:09:24;26.10;53.30
50955;DHT22;36966;48.064;-0.792;2023-07-08T08:11:44;26.10;53.30
50955;DHT22;36966;48.064;-0.792;2023-07-08T08:14:03;26.10;53.30
50955;DHT22;36966;48.064;-0.792;2023-07-08T08:16:23;26.10;53.20
50955;DHT22;36966;48.064;-0.792;2023-07-08T08:18:42;26.10;53.20
50955;DHT22;36966;48.064;-0.792;2023-07-08T08:21:02;26.10;53.20
50955;DHT22;36966;48.064;-0.792;2023-07-08T08:23:21;26.20;53.20
50955;DHT22;36966;48.064;-0.792;2023-07-08T08:25:41;26.20;53.20
50955;DHT22;36966;48.064;-0.792;2023-07-08T08:28:00;26.20;53.20
50955;DHT22;36966;48.064;-0.792;2023-07-08T08:30:19;26.20;53.10
50955;DHT22;36966;48.064;-0.792;2023-07-08T08:32:38;26.20;53.10
50955;DHT22;36966;48.064;-0.792;2023-07-08T08:34:57;26.20;53.20
50955;DHT22;36966;48.064;-0.792;2023-07-08T08:37:17;26.20;53.20
50955;DHT22;36966;48.064;-0.792;2023-07-08T08:39:36;26.20;53.10
50955;DHT22;36966;48.064;-0.792;2023-07-08T08:41:55;26.20;53.10
50955;DHT22;36966;48.064;-0.792;2023-07-08T08:44:16;26.20;53.20
50955;DHT22;36966;48.064;-0.792;2023-07-08T08:46:41;26.20;53.20
50955;DHT22;36966;48.064;-0.792;2023-07-08T08:51:32;26.20;53.30
50955;DHT22;36966;48.064;-0.792;2023-07-08T08:53:53;26.20;53.50
50955;DHT22;36966;48.064;-0.792;2023-07-08T09:01:17;26.30;53.80
50955;DHT22;36966;48.064;-0.792;2023-07-08T09:03:47;26.30;53.80
50955;DHT22;36966;48.064;-0.792;2023-07-08T09:06:12;26.30;53.70
50955;DHT22;36966;48.064;-0.792;2023-07-08T09:08:34;26.30;54.10
50955;DHT22;36966;48.064;-0.792;2023-07-08T09:11:00;26.40;54.40
50955;DHT22;36966;48.064;-0.792;2023-07-08T09:13:29;26.40;54.80
50955;DHT22;36966;48.064;-0.792;2023-07-08T09:15:52;26.50;54.50
50955;DHT22;36966;48.064;-0.792;2023-07-08T09:18:16;26.50;54.50
50955;DHT22;36966;48.064;-0.792;2023-07-08T09:20:37;26.50;54.50
50955;DHT22;36966;48.064;-0.792;2023-07-08T09:27:47;26.50;54.30
50955;DHT22;36966;48.064;-0.792;2023-07-08T09:30:10;26.60;54.10
50955;DHT22;36966;48.064;-0.792;2023-07-08T09:32:32;26.60;54.10
50955;DHT22;36966;48.064;-0.792;2023-07-08T09:35:01;26.60;54.20
50955;DHT22;36966;48.064;-0.792;2023-07-08T09:37:26;26.60;54.10
50955;DHT22;36966;48.064;-0.792;2023-07-08T09:39:45;26.60;54.10
50955;DHT22;36966;48.064;-0.792;2023-07-08T09:42:06;26.60;54.10
50955;DHT22;36966;48.064;-0.792;2023-07-08T09:44:28;26.60;54.30
50955;DHT22;36966;48.064;-0.792;2023-07-08T09:46:49;26.60;54.30
50955;DHT22;36966;48.064;-0.792;2023-07-08T09:49:22;26.60;54.20
50955;DHT22;36966;48.064;-0.792;2023-07-08T09:51:41;26.60;54.10
50955;DHT22;36966;48.064;-0.792;2023-07-08T09:54:01;26.60;54.00
50955;DHT22;36966;48.064;-0.792;2023-07-08T09:56:20;26.70;54.00
50955;DHT22;36966;48.064;-0.792;2023-07-08T09:58:40;26.60;54.40
50955;DHT22;36966;48.064;-0.792;2023-07-08T10:01:05;26.60;55.30
50955;DHT22;36966;48.064;-0.792;2023-07-08T10:03:28;26.70;55.30
50955;DHT22;36966;48.064;-0.792;2023-07-08T10:05:49;26.70;55.30
50955;DHT22;36966;48.064;-0.792;2023-07-08T10:08:12;26.70;55.10
50955;DHT22;36966;48.064;-0.792;2023-07-08T10:10:36;26.80;55.40
50955;DHT22;36966;48.064;-0.792;2023-07-08T10:12:56;26.80;55.00
50955;DHT22;36966;48.064;-0.792;2023-07-08T10:15:26;26.80;54.90
50955;DHT22;36966;48.064;-0.792;2023-07-08T10:17:47;26.80;54.70
50955;DHT22;36966;48.064;-0.792;2023-07-08T10:20:15;26.90;54.50
50955;DHT22;36966;48.064;-0.792;2023-07-08T10:25:11;27.00;54.20
50955;DHT22;36966;48.064;-0.792;2023-07-08T10:27:36;27.00;53.90
50955;DHT22;36966;48.064;-0.792;2023-07-08T10:30:02;27.00;54.00
50955;DHT22;36966;48.064;-0.792;2023-07-08T10:34:58;27.00;53.50
50955;DHT22;36966;48.064;-0.792;2023-07-08T10:37:32;27.00;53.50
50955;DHT22;36966;48.064;-0.792;2023-07-08T10:43:09;27.00;53.40
50955;DHT22;36966;48.064;-0.792;2023-07-08T10:45:07;27.00;53.30
50955;DHT22;36966;48.064;-0.792;2023-07-08T10:47:32;27.10;53.20
50955;DHT22;36966;48.064;-0.792;2023-07-08T10:50:03;27.10;53.40
50955;DHT22;36966;48.064;-0.792;2023-07-08T11:08:03;27.40;52.30
50955;DHT22;36966;48.064;-0.792;2023-07-08T11:10:32;27.30;52.20
50955;DHT22;36966;48.064;-0.792;2023-07-08T11:12:56;27.40;51.80
50955;DHT22;36966;48.064;-0.792;2023-07-08T11:17:49;27.50;51.50
50955;DHT22;36966;48.064;-0.792;2023-07-08T11:22:35;27.60;51.00
50955;DHT22;36966;48.064;-0.792;2023-07-08T11:24:57;27.70;51.00
50955;DHT22;36966;48.064;-0.792;2023-07-08T11:29:45;27.70;51.00
50955;DHT22;36966;48.064;-0.792;2023-07-08T11:32:06;27.70;50.50
50955;DHT22;36966;48.064;-0.792;2023-07-08T11:34:27;27.70;50.30
50955;DHT22;36966;48.064;-0.792;2023-07-08T11:36:47;27.80;49.80
50955;DHT22;36966;48.064;-0.792;2023-07-08T11:39:25;27.80;49.70
50955;DHT22;36966;48.064;-0.792;2023-07-08T11:41:45;27.80;49.40
50955;DHT22;36966;48.064;-0.792;2023-07-08T11:44:04;27.80;49.70
50955;DHT22;36966;48.064;-0.792;2023-07-08T11:46:26;27.90;49.80
50955;DHT22;36966;48.064;-0.792;2023-07-08T11:48:48;27.90;50.00
50955;DHT22;36966;48.064;-0.792;2023-07-08T11:51:07;27.90;50.00
50955;DHT22;36966;48.064;-0.792;2023-07-08T11:53:32;27.90;50.00
50955;DHT22;36966;48.064;-0.792;2023-07-08T11:55:57;27.90;50.20
50955;DHT22;36966;48.064;-0.792;2023-07-08T11:58:24;27.90;50.10
50955;DHT22;36966;48.064;-0.792;2023-07-08T12:00:44;28.00;49.90
50955;DHT22;36966;48.064;-0.792;2023-07-08T12:03:18;28.00;50.10
50955;DHT22;36966;48.064;-0.792;2023-07-08T12:05:38;28.00;50.10
50955;DHT22;36966;48.064;-0.792;2023-07-08T12:07:57;28.00;49.80
50955;DHT22;36966;48.064;-0.792;2023-07-08T12:10:19;27.90;49.60
50955;DHT22;36966;48.064;-0.792;2023-07-08T12:12:42;28.00;49.40
50955;DHT22;36966;48.064;-0.792;2023-07-08T12:15:08;28.00;49.70
50955;DHT22;36966;48.064;-0.792;2023-07-08T12:17:29;28.00;49.60
50955;DHT22;36966;48.064;-0.792;2023-07-08T12:19:49;28.00;49.70
50955;DHT22;36966;48.064;-0.792;2023-07-08T12:22:09;28.00;50.20
50955;DHT22;36966;48.064;-0.792;2023-07-08T12:24:31;27.90;50.10
50955;DHT22;36966;48.064;-0.792;2023-07-08T12:26:50;27.90;49.90
50955;DHT22;36966;48.064;-0.792;2023-07-08T12:29:13;27.90;49.80
50955;DHT22;36966;48.064;-0.792;2023-07-08T12:31:32;27.90;49.70
50955;DHT22;36966;48.064;-0.792;2023-07-08T12:33:51;27.90;49.90
50955;DHT22;36966;48.064;-0.792;2023-07-08T12:36:13;27.80;50.10
50955;DHT22;36966;48.064;-0.792;2023-07-08T12:38:39;27.80;50.40
50955;DHT22;36966;48.064;-0.792;2023-07-08T12:41:00;27.80;50.60
50955;DHT22;36966;48.064;-0.792;2023-07-08T12:43:19;27.80;50.60
50955;DHT22;36966;48.064;-0.792;2023-07-08T12:45:39;27.80;50.80
50955;DHT22;36966;48.064;-0.792;2023-07-08T12:47:58;27.70;50.70
50955;DHT22;36966;48.064;-0.792;2023-07-08T12:50:18;27.80;50.70
50955;DHT22;36966;48.064;-0.792;2023-07-08T12:52:37;27.80;50.80
50955;DHT22;36966;48.064;-0.792;2023-07-08T12:54:57;27.80;50.90
50955;DHT22;36966;48.064;-0.792;2023-07-08T12:57:16;27.80;50.80
50955;DHT22;36966;48.064;-0.792;2023-07-08T12:59:36;27.80;50.70
50955;DHT22;36966;48.064;-0.792;2023-07-08T13:01:55;27.80;50.70
50955;DHT22;36966;48.064;-0.792;2023-07-08T13:04:14;27.80;50.70
50955;DHT22;36966;48.064;-0.792;2023-07-08T13:06:34;27.80;50.80
50955;DHT22;36966;48.064;-0.792;2023-07-08T13:08:54;27.90;50.80
50955;DHT22;36966;48.064;-0.792;2023-07-08T13:11:16;27.90;50.90
50955;DHT22;36966;48.064;-0.792;2023-07-08T13:13:38;27.90;50.90
50955;DHT22;36966;48.064;-0.792;2023-07-08T13:15:58;27.90;50.90
50955;DHT22;36966;48.064;-0.792;2023-07-08T13:18:18;27.80;50.80
50955;DHT22;36966;48.064;-0.792;2023-07-08T13:20:37;27.90;50.70
50955;DHT22;36966;48.064;-0.792;2023-07-08T13:22:59;27.90;50.70
50955;DHT22;36966;48.064;-0.792;2023-07-08T13:25:19;28.00;50.60
50955;DHT22;36966;48.064;-0.792;2023-07-08T13:27:39;28.00;50.60
50955;DHT22;36966;48.064;-0.792;2023-07-08T13:30:06;28.00;50.30
50955;DHT22;36966;48.064;-0.792;2023-07-08T13:32:32;28.00;50.40
50955;DHT22;36966;48.064;-0.792;2023-07-08T13:34:52;28.00;50.30
50955;DHT22;36966;48.064;-0.792;2023-07-08T13:37:12;28.00;50.20
50955;DHT22;36966;48.064;-0.792;2023-07-08T13:39:34;28.00;50.20
50955;DHT22;36966;48.064;-0.792;2023-07-08T13:41:55;28.00;50.20
50955;DHT22;36966;48.064;-0.792;2023-07-08T13:44:15;28.00;50.30
50955;DHT22;36966;48.064;-0.792;2023-07-08T13:46:36;28.00;50.30
50955;DHT22;36966;48.064;-0.792;2023-07-08T13:48:55;28.00;50.30
50955;DHT22;36966;48.064;-0.792;2023-07-08T13:51:16;28.00;50.20
50955;DHT22;36966;48.064;-0.792;2023-07-08T13:55:59;27.90;50.50
50955;DHT22;36966;48.064;-0.792;2023-07-08T13:58:19;27.90;50.40
50955;DHT22;36966;48.064;-0.792;2023-07-08T14:00:38;27.90;50.30
50955;DHT22;36966;48.064;-0.792;2023-07-08T14:02:58;27.90;50.40
50955;DHT22;36966;48.064;-0.792;2023-07-08T14:05:17;27.80;50.50
50955;DHT22;36966;48.064;-0.792;2023-07-08T14:07:39;27.90;50.50
50955;DHT22;36966;48.064;-0.792;2023-07-08T14:09:58;27.90;50.50
50955;DHT22;36966;48.064;-0.792;2023-07-08T14:12:17;27.80;50.50
50955;DHT22;36966;48.064;-0.792;2023-07-08T14:14:36;27.90;50.50
50955;DHT22;36966;48.064;-0.792;2023-07-08T14:16:56;27.90;50.50
50955;DHT22;36966;48.064;-0.792;2023-07-08T14:19:17;27.80;50.40
50955;DHT22;36966;48.064;-0.792;2023-07-08T14:21:39;27.80;50.40
50955;DHT22;36966;48.064;-0.792;2023-07-08T14:23:58;27.80;50.30
50955;DHT22;36966;48.064;-0.792;2023-07-08T14:26:17;27.80;50.50
50955;DHT22;36966;48.064;-0.792;2023-07-08T14:28:36;27.80;50.40
50955;DHT22;36966;48.064;-0.792;2023-07-08T14:30:56;27.80;50.50
50955;DHT22;36966;48.064;-0.792;2023-07-08T14:33:15;27.80;50.60
50955;DHT22;36966;48.064;-0.792;2023-07-08T14:35:34;27.80;50.50
50955;DHT22;36966;48.064;-0.792;2023-07-08T14:37:53;27.70;50.50
50955;DHT22;36966;48.064;-0.792;2023-07-08T14:42:39;27.70;50.70
50955;DHT22;36966;48.064;-0.792;2023-07-08T14:44:59;27.70;50.70
50955;DHT22;36966;48.064;-0.792;2023-07-08T14:47:19;27.70;50.40
50955;DHT22;36966;48.064;-0.792;2023-07-08T14:49:38;27.80;50.50
50955;DHT22;36966;48.064;-0.792;2023-07-08T14:51:58;27.70;50.40
50955;DHT22;36966;48.064;-0.792;2023-07-08T14:54:18;27.70;50.60
50955;DHT22;36966;48.064;-0.792;2023-07-08T14:56:37;27.80;48.90
50955;DHT22;36966;48.064;-0.792;2023-07-08T14:58:57;27.90;49.00
50955;DHT22;36966;48.064;-0.792;2023-07-08T15:01:21;28.00;49.00
50955;DHT22;36966;48.064;-0.792;2023-07-08T15:03:42;28.10;48.40
50955;DHT22;36966;48.064;-0.792;2023-07-08T15:06:02;28.10;48.80
50955;DHT22;36966;48.064;-0.792;2023-07-08T15:08:21;28.20;48.90
50955;DHT22;36966;48.064;-0.792;2023-07-08T15:10:43;28.20;49.00
50955;DHT22;36966;48.064;-0.792;2023-07-08T15:13:08;28.30;48.90
50955;DHT22;36966;48.064;-0.792;2023-07-08T15:15:32;28.30;49.20
50955;DHT22;36966;48.064;-0.792;2023-07-08T15:17:52;28.30;48.90
50955;DHT22;36966;48.064;-0.792;2023-07-08T15:20:12;28.30;49.20
50955;DHT22;36966;48.064;-0.792;2023-07-08T15:22:34;28.30;48.50
50955;DHT22;36966;48.064;-0.792;2023-07-08T15:24:56;28.30;48.60
50955;DHT22;36966;48.064;-0.792;2023-07-08T15:27:17;28.30;49.10
50955;DHT22;36966;48.064;-0.792;2023-07-08T15:29:38;28.40;49.50